sensor_id;sensor_type;location;lat;lon;timestamp;P1;durP1;ratioP1;P2;durP2;ratioP2
63370;SDS011;49504;48.336;14.472;2023-03-02T00:02:32;5.30;;;3.05;;
63370;SDS011;49504;48.336;14.472;2023-03-02T00:05:55;5.55;;;3.45;;
63370;SDS011;49504;48.336;14.472;2023-03-02T00:09:18;4.87;;;3.10;;
63370;SDS011;49504;48.336;14.472;2023-03-02T00:12:39;5.75;;;3.33;;
63370;SDS011;49504;48.336;14.472;2023-03-02T00:16:00;5.13;;;3.13;;
63370;SDS011;49504;48.336;14.472;2023-03-02T00:22:28;5.93;;;3.55;;
63370;SDS011;49504;48.336;14.472;2023-03-02T00:25:49;5.32;;;3.13;;
63370;SDS011;49504;48.336;14.472;2023-03-02T00:29:10;5.35;;;3.45;;
63370;SDS011;49504;48.336;14.472;2023-03-02T00:32:31;5.70;;;3.30;;
63370;SDS011;49504;48.336;14.472;2023-03-02T00:35:53;5.18;;;3.15;;
63370;SDS011;49504;48.336;14.472;2023-03-02T00:39:15;4.93;;;3.03;;
63370;SDS011;49504;48.336;14.472;2023-03-02T00:42:37;5.60;;;3.33;;
63370;SDS011;49504;48.336;14.472;2023-03-02T00:45:58;5.60;;;3.60;;
63370;SDS011;49504;48.336;14.472;2023-03-02T00:49:19;5.38;;;3.25;;
63370;SDS011;49504;48.336;14.472;2023-03-02T00:52:41;5.57;;;3.38;;
63370;SDS011;49504;48.336;14.472;2023-03-02T00:58:11;4.43;;;2.85;;
63370;SDS011;49504;48.336;14.472;2023-03-02T01:01:32;5.03;;;3.05;;
63370;SDS011;49504;48.336;14.472;2023-03-02T01:04:53;5.22;;;3.45;;
63370;SDS011;49504;48.336;14.472;2023-03-02T01:08:14;5.50;;;2.90;;
63370;SDS011;49504;48.336;14.472;2023-03-02T01:11:36;4.53;;;2.80;;
63370;SDS011;49504;48.336;14.472;2023-03-02T01:14:58;5.32;;;3.45;;
63370;SDS011;49504;48.336;14.472;2023-03-02T01:18:19;4.80;;;2.92;;
63370;SDS011;49504;48.336;14.472;2023-03-02T01:21:41;5.78;;;3.72;;
63370;SDS011;49504;48.336;14.472;2023-03-02T01:25:03;4.82;;;2.85;;
63370;SDS011;49504;48.336;14.472;2023-03-02T01:28:25;4.95;;;3.08;;
63370;SDS011;49504;48.336;14.472;2023-03-02T01:31:48;4.78;;;2.92;;
63370;SDS011;49504;48.336;14.472;2023-03-02T01:35:09;4.60;;;2.63;;
63370;SDS011;49504;48.336;14.472;2023-03-02T01:38:30;5.45;;;3.38;;
63370;SDS011;49504;48.336;14.472;2023-03-02T01:41:51;5.32;;;3.22;;
63370;SDS011;49504;48.336;14.472;2023-03-02T01:47:03;4.60;;;2.95;;
63370;SDS011;49504;48.336;14.472;2023-03-02T01:50:31;5.72;;;3.45;;
63370;SDS011;49504;48.336;14.472;2023-03-02T01:53:53;5.47;;;3.13;;
63370;SDS011;49504;48.336;14.472;2023-03-02T01:57:22;5.22;;;3.30;;
63370;SDS011;49504;48.336;14.472;2023-03-02T02:00:48;4.88;;;3.25;;
63370;SDS011;49504;48.336;14.472;2023-03-02T02:04:13;5.32;;;3.30;;
63370;SDS011;49504;48.336;14.472;2023-03-02T02:07:34;5.55;;;3.38;;
63370;SDS011;49504;48.336;14.472;2023-03-02T02:10:56;4.85;;;2.85;;
63370;SDS011;49504;48.336;14.472;2023-03-02T02:14:18;4.90;;;3.20;;
63370;SDS011;49504;48.336;14.472;2023-03-02T02:17:39;5.10;;;3.38;;
63370;SDS011;49504;48.336;14.472;2023-03-02T02:21:03;5.43;;;3.45;;
63370;SDS011;49504;48.336;14.472;2023-03-02T02:24:26;5.20;;;3.20;;
63370;SDS011;49504;48.336;14.472;2023-03-02T02:27:59;4.90;;;2.97;;
63370;SDS011;49504;48.336;14.472;2023-03-02T02:31:24;4.95;;;3.05;;
63370;SDS011;49504;48.336;14.472;2023-03-02T02:34:54;5.00;;;3.38;;
63370;SDS011;49504;48.336;14.472;2023-03-02T02:38:20;4.93;;;3.20;;
63370;SDS011;49504;48.336;14.472;2023-03-02T02:42:16;5.10;;;3.20;;
63370;SDS011;49504;48.336;14.472;2023-03-02T02:45:41;5.15;;;3.25;;
63370;SDS011;49504;48.336;14.472;2023-03-02T02:49:02;5.80;;;3.30;;
63370;SDS011;49504;48.336;14.472;2023-03-02T02:52:32;5.30;;;3.10;;
63370;SDS011;49504;48.336;14.472;2023-03-02T02:55:53;6.85;;;3.63;;
63370;SDS011;49504;48.336;14.472;2023-03-02T02:59:20;5.05;;;2.97;;
63370;SDS011;49504;48.336;14.472;2023-03-02T03:02:45;4.93;;;2.95;;
63370;SDS011;49504;48.336;14.472;2023-03-02T03:06:17;4.80;;;2.95;;
63370;SDS011;49504;48.336;14.472;2023-03-02T03:09:40;5.38;;;3.05;;
63370;SDS011;49504;48.336;14.472;2023-03-02T03:13:01;5.45;;;2.72;;
63370;SDS011;49504;48.336;14.472;2023-03-02T03:16:24;5.10;;;3.20;;
63370;SDS011;49504;48.336;14.472;2023-03-02T03:19:48;4.82;;;2.90;;
63370;SDS011;49504;48.336;14.472;2023-03-02T03:23:10;4.72;;;3.00;;
63370;SDS011;49504;48.336;14.472;2023-03-02T03:26:31;5.30;;;3.13;;
63370;SDS011;49504;48.336;14.472;2023-03-02T03:29:52;5.22;;;3.10;;
63370;SDS011;49504;48.336;14.472;2023-03-02T03:33:16;5.38;;;3.15;;
63370;SDS011;49504;48.336;14.472;2023-03-02T03:36:37;5.35;;;3.10;;
63370;SDS011;49504;48.336;14.472;2023-03-02T03:40:00;5.40;;;3.20;;
63370;SDS011;49504;48.336;14.472;2023-03-02T03:43:22;5.22;;;2.83;;
63370;SDS011;49504;48.336;14.472;2023-03-02T03:46:47;4.72;;;2.88;;
63370;SDS011;49504;48.336;14.472;2023-03-02T03:50:10;4.88;;;3.00;;
63370;SDS011;49504;48.336;14.472;2023-03-02T03:53:32;4.53;;;2.92;;
63370;SDS011;49504;48.336;14.472;2023-03-02T03:56:54;4.85;;;3.00;;
63370;SDS011;49504;48.336;14.472;2023-03-02T04:00:15;4.63;;;2.88;;
63370;SDS011;49504;48.336;14.472;2023-03-02T04:03:46;4.70;;;2.70;;
63370;SDS011;49504;48.336;14.472;2023-03-02T04:07:08;4.90;;;2.90;;
63370;SDS011;49504;48.336;14.472;2023-03-02T04:10:30;4.82;;;2.80;;
63370;SDS011;49504;48.336;14.472;2023-03-02T04:13:52;5.57;;;3.35;;
63370;SDS011;49504;48.336;14.472;2023-03-02T04:17:13;5.40;;;2.88;;
63370;SDS011;49504;48.336;14.472;2023-03-02T04:20:38;4.93;;;3.05;;
63370;SDS011;49504;48.336;14.472;2023-03-02T04:24:00;4.07;;;2.53;;
63370;SDS011;49504;48.336;14.472;2023-03-02T04:27:22;5.15;;;3.10;;
63370;SDS011;49504;48.336;14.472;2023-03-02T04:30:43;4.93;;;3.00;;
63370;SDS011;49504;48.336;14.472;2023-03-02T04:34:04;4.82;;;3.13;;
63370;SDS011;49504;48.336;14.472;2023-03-02T04:37:28;4.78;;;2.95;;
63370;SDS011;49504;48.336;14.472;2023-03-02T04:40:51;5.18;;;3.20;;
63370;SDS011;49504;48.336;14.472;2023-03-02T04:44:13;4.80;;;3.00;;
63370;SDS011;49504;48.336;14.472;2023-03-02T04:47:35;5.25;;;2.90;;
63370;SDS011;49504;48.336;14.472;2023-03-02T04:50:56;6.20;;;2.92;;
63370;SDS011;49504;48.336;14.472;2023-03-02T04:54:18;5.80;;;3.30;;
63370;SDS011;49504;48.336;14.472;2023-03-02T04:57:43;4.97;;;3.13;;
63370;SDS011;49504;48.336;14.472;2023-03-02T05:01:04;5.28;;;3.63;;
63370;SDS011;49504;48.336;14.472;2023-03-02T05:04:26;6.72;;;4.00;;
63370;SDS011;49504;48.336;14.472;2023-03-02T05:07:48;5.82;;;3.92;;
63370;SDS011;49504;48.336;14.472;2023-03-02T05:11:10;6.05;;;4.00;;
63370;SDS011;49504;48.336;14.472;2023-03-02T05:14:34;6.63;;;4.20;;
63370;SDS011;49504;48.336;14.472;2023-03-02T05:17:55;6.68;;;3.45;;
63370;SDS011;49504;48.336;14.472;2023-03-02T05:21:17;5.65;;;3.42;;
63370;SDS011;49504;48.336;14.472;2023-03-02T05:24:38;5.65;;;3.50;;
63370;SDS011;49504;48.336;14.472;2023-03-02T05:28:00;6.15;;;3.30;;
63370;SDS011;49504;48.336;14.472;2023-03-02T05:31:26;6.07;;;3.42;;
63370;SDS011;49504;48.336;14.472;2023-03-02T05:34:50;5.90;;;3.53;;
63370;SDS011;49504;48.336;14.472;2023-03-02T05:38:11;6.32;;;3.70;;
63370;SDS011;49504;48.336;14.472;2023-03-02T05:41:32;7.47;;;3.72;;
63370;SDS011;49504;48.336;14.472;2023-03-02T05:44:54;5.80;;;3.30;;
63370;SDS011;49504;48.336;14.472;2023-03-02T05:48:17;7.32;;;3.30;;
63370;SDS011;49504;48.336;14.472;2023-03-02T05:51:38;5.07;;;2.95;;
63370;SDS011;49504;48.336;14.472;2023-03-02T05:54:59;8.45;;;3.58;;
63370;SDS011;49504;48.336;14.472;2023-03-02T05:58:21;6.38;;;3.47;;
63370;SDS011;49504;48.336;14.472;2023-03-02T06:01:43;7.60;;;2.97;;
63370;SDS011;49504;48.336;14.472;2023-03-02T06:05:08;5.03;;;2.83;;
63370;SDS011;49504;48.336;14.472;2023-03-02T06:08:32;5.43;;;3.20;;
63370;SDS011;49504;48.336;14.472;2023-03-02T06:11:54;5.25;;;3.00;;
63370;SDS011;49504;48.336;14.472;2023-03-02T06:15:16;6.35;;;3.55;;
63370;SDS011;49504;48.336;14.472;2023-03-02T06:18:38;5.13;;;2.78;;
63370;SDS011;49504;48.336;14.472;2023-03-02T06:22:02;4.93;;;3.05;;
63370;SDS011;49504;48.336;14.472;2023-03-02T06:25:23;5.22;;;2.78;;
63370;SDS011;49504;48.336;14.472;2023-03-02T06:28:46;5.38;;;3.03;;
63370;SDS011;49504;48.336;14.472;2023-03-02T06:32:08;5.35;;;3.35;;
63370;SDS011;49504;48.336;14.472;2023-03-02T06:35:29;4.57;;;2.65;;
63370;SDS011;49504;48.336;14.472;2023-03-02T06:38:53;4.50;;;2.83;;
63370;SDS011;49504;48.336;14.472;2023-03-02T06:44:17;5.10;;;2.83;;
63370;SDS011;49504;48.336;14.472;2023-03-02T06:47:39;5.40;;;3.05;;
63370;SDS011;49504;48.336;14.472;2023-03-02T06:51:01;5.20;;;2.85;;
63370;SDS011;49504;48.336;14.472;2023-03-02T06:54:23;5.47;;;2.92;;
63370;SDS011;49504;48.336;14.472;2023-03-02T06:58:51;5.45;;;2.88;;
63370;SDS011;49504;48.336;14.472;2023-03-02T07:02:13;4.72;;;2.72;;
63370;SDS011;49504;48.336;14.472;2023-03-02T07:05:35;4.80;;;2.92;;
63370;SDS011;49504;48.336;14.472;2023-03-02T07:08:57;4.70;;;2.92;;
63370;SDS011;49504;48.336;14.472;2023-03-02T07:12:19;4.97;;;3.15;;
63370;SDS011;49504;48.336;14.472;2023-03-02T07:15:42;5.63;;;3.30;;
63370;SDS011;49504;48.336;14.472;2023-03-02T07:19:04;4.70;;;2.70;;
63370;SDS011;49504;48.336;14.472;2023-03-02T07:22:31;5.30;;;3.08;;
63370;SDS011;49504;48.336;14.472;2023-03-02T07:25:53;4.68;;;2.78;;
63370;SDS011;49504;48.336;14.472;2023-03-02T07:29:15;4.60;;;2.97;;
63370;SDS011;49504;48.336;14.472;2023-03-02T07:32:37;5.47;;;3.08;;
63370;SDS011;49504;48.336;14.472;2023-03-02T07:35:58;5.22;;;2.83;;
63370;SDS011;49504;48.336;14.472;2023-03-02T07:39:20;4.90;;;3.10;;
63370;SDS011;49504;48.336;14.472;2023-03-02T07:42:41;4.70;;;2.78;;
63370;SDS011;49504;48.336;14.472;2023-03-02T07:49:06;4.50;;;2.75;;
63370;SDS011;49504;48.336;14.472;2023-03-02T07:52:27;4.45;;;2.67;;
63370;SDS011;49504;48.336;14.472;2023-03-02T07:55:48;6.13;;;2.80;;
63370;SDS011;49504;48.336;14.472;2023-03-02T07:59:10;5.25;;;3.13;;
63370;SDS011;49504;48.336;14.472;2023-03-02T08:02:31;4.68;;;2.78;;
63370;SDS011;49504;48.336;14.472;2023-03-02T08:05:54;6.25;;;3.20;;
63370;SDS011;49504;48.336;14.472;2023-03-02T08:09:15;5.63;;;3.15;;
63370;SDS011;49504;48.336;14.472;2023-03-02T08:12:36;5.00;;;3.13;;
63370;SDS011;49504;48.336;14.472;2023-03-02T08:15:58;4.40;;;2.83;;
63370;SDS011;49504;48.336;14.472;2023-03-02T08:19:20;5.03;;;3.05;;
63370;SDS011;49504;48.336;14.472;2023-03-02T08:22:42;4.90;;;2.97;;
63370;SDS011;49504;48.336;14.472;2023-03-02T08:26:03;4.97;;;3.08;;
63370;SDS011;49504;48.336;14.472;2023-03-02T08:29:25;6.03;;;4.00;;
63370;SDS011;49504;48.336;14.472;2023-03-02T08:32:46;5.03;;;2.85;;
63370;SDS011;49504;48.336;14.472;2023-03-02T08:36:10;5.38;;;2.85;;
63370;SDS011;49504;48.336;14.472;2023-03-02T08:39:35;5.25;;;3.30;;
63370;SDS011;49504;48.336;14.472;2023-03-02T08:42:56;5.00;;;3.20;;
63370;SDS011;49504;48.336;14.472;2023-03-02T08:46:17;5.28;;;3.38;;
63370;SDS011;49504;48.336;14.472;2023-03-02T08:49:38;5.72;;;3.53;;
63370;SDS011;49504;48.336;14.472;2023-03-02T08:52:59;5.28;;;3.33;;
63370;SDS011;49504;48.336;14.472;2023-03-02T08:56:25;5.88;;;3.30;;
63370;SDS011;49504;48.336;14.472;2023-03-02T08:59:48;5.82;;;3.65;;
63370;SDS011;49504;48.336;14.472;2023-03-02T09:03:09;5.47;;;3.45;;
63370;SDS011;49504;48.336;14.472;2023-03-02T09:06:32;5.30;;;3.33;;
63370;SDS011;49504;48.336;14.472;2023-03-02T09:09:55;5.88;;;3.72;;
63370;SDS011;49504;48.336;14.472;2023-03-02T09:13:18;5.85;;;3.60;;
63370;SDS011;49504;48.336;14.472;2023-03-02T09:16:39;6.05;;;3.40;;
63370;SDS011;49504;48.336;14.472;2023-03-02T09:20:00;6.53;;;4.07;;
63370;SDS011;49504;48.336;14.472;2023-03-02T09:23:22;6.70;;;4.15;;
63370;SDS011;49504;48.336;14.472;2023-03-02T09:26:44;5.78;;;3.78;;
63370;SDS011;49504;48.336;14.472;2023-03-02T09:30:07;6.07;;;4.20;;
63370;SDS011;49504;48.336;14.472;2023-03-02T09:33:30;6.63;;;4.28;;
63370;SDS011;49504;48.336;14.472;2023-03-02T09:36:52;6.60;;;4.10;;
63370;SDS011;49504;48.336;14.472;2023-03-02T09:40:15;5.90;;;4.07;;
63370;SDS011;49504;48.336;14.472;2023-03-02T09:43:42;6.50;;;4.07;;
63370;SDS011;49504;48.336;14.472;2023-03-02T09:47:11;7.13;;;4.30;;
63370;SDS011;49504;48.336;14.472;2023-03-02T09:50:43;5.82;;;4.00;;
63370;SDS011;49504;48.336;14.472;2023-03-02T09:54:15;6.95;;;4.30;;
63370;SDS011;49504;48.336;14.472;2023-03-02T10:01:02;7.18;;;4.30;;
63370;SDS011;49504;48.336;14.472;2023-03-02T10:04:31;6.90;;;4.30;;
63370;SDS011;49504;48.336;14.472;2023-03-02T10:08:02;7.35;;;4.45;;
63370;SDS011;49504;48.336;14.472;2023-03-02T10:11:25;7.00;;;4.50;;
63370;SDS011;49504;48.336;14.472;2023-03-02T10:14:57;6.75;;;4.45;;
63370;SDS011;49504;48.336;14.472;2023-03-02T10:18:26;7.28;;;4.95;;
63370;SDS011;49504;48.336;14.472;2023-03-02T10:21:56;6.53;;;4.00;;
63370;SDS011;49504;48.336;14.472;2023-03-02T10:25:26;6.82;;;4.68;;
63370;SDS011;49504;48.336;14.472;2023-03-02T10:28:57;6.68;;;4.20;;
63370;SDS011;49504;48.336;14.472;2023-03-02T10:32:28;6.82;;;4.07;;
63370;SDS011;49504;48.336;14.472;2023-03-02T10:35:52;5.97;;;3.92;;
63370;SDS011;49504;48.336;14.472;2023-03-02T10:39:15;6.32;;;4.00;;
63370;SDS011;49504;48.336;14.472;2023-03-02T10:42:37;6.18;;;4.10;;
63370;SDS011;49504;48.336;14.472;2023-03-02T10:46:00;6.63;;;4.10;;
63370;SDS011;49504;48.336;14.472;2023-03-02T10:49:25;5.80;;;4.05;;
63370;SDS011;49504;48.336;14.472;2023-03-02T10:53:30;5.72;;;3.83;;
63370;SDS011;49504;48.336;14.472;2023-03-02T10:56:51;6.13;;;3.70;;
63370;SDS011;49504;48.336;14.472;2023-03-02T11:00:16;6.65;;;3.90;;
63370;SDS011;49504;48.336;14.472;2023-03-02T11:03:53;7.53;;;3.85;;
63370;SDS011;49504;48.336;14.472;2023-03-02T11:07:15;6.95;;;3.72;;
63370;SDS011;49504;48.336;14.472;2023-03-02T11:10:40;5.75;;;3.50;;
63370;SDS011;49504;48.336;14.472;2023-03-02T11:14:13;5.90;;;3.38;;
63370;SDS011;49504;48.336;14.472;2023-03-02T11:17:35;6.72;;;3.85;;
63370;SDS011;49504;48.336;14.472;2023-03-02T11:20:58;5.50;;;3.30;;
63370;SDS011;49504;48.336;14.472;2023-03-02T11:24:25;5.78;;;3.35;;
63370;SDS011;49504;48.336;14.472;2023-03-02T11:27:54;5.82;;;3.58;;
63370;SDS011;49504;48.336;14.472;2023-03-02T11:31:35;5.68;;;3.20;;
63370;SDS011;49504;48.336;14.472;2023-03-02T11:35:04;5.75;;;3.47;;
63370;SDS011;49504;48.336;14.472;2023-03-02T11:38:32;5.47;;;3.15;;
63370;SDS011;49504;48.336;14.472;2023-03-02T11:42:01;5.82;;;3.33;;
63370;SDS011;49504;48.336;14.472;2023-03-02T11:45:22;5.53;;;3.15;;
63370;SDS011;49504;48.336;14.472;2023-03-02T11:48:48;6.47;;;3.40;;
63370;SDS011;49504;48.336;14.472;2023-03-02T11:52:14;5.30;;;3.13;;
63370;SDS011;49504;48.336;14.472;2023-03-02T11:55:42;5.20;;;3.10;;
63370;SDS011;49504;48.336;14.472;2023-03-02T11:59:09;6.32;;;3.20;;
63370;SDS011;49504;48.336;14.472;2023-03-02T12:02:32;5.85;;;3.28;;
63370;SDS011;49504;48.336;14.472;2023-03-02T12:06:02;5.88;;;3.08;;
63370;SDS011;49504;48.336;14.472;2023-03-02T12:09:28;5.10;;;3.17;;
63370;SDS011;49504;48.336;14.472;2023-03-02T12:15:42;5.30;;;3.00;;
63370;SDS011;49504;48.336;14.472;2023-03-02T12:19:12;5.68;;;3.13;;
63370;SDS011;49504;48.336;14.472;2023-03-02T12:22:44;4.80;;;2.95;;
63370;SDS011;49504;48.336;14.472;2023-03-02T12:26:07;5.07;;;2.85;;
63370;SDS011;49504;48.336;14.472;2023-03-02T12:29:45;5.22;;;2.88;;
63370;SDS011;49504;48.336;14.472;2023-03-02T12:33:18;4.97;;;3.10;;
63370;SDS011;49504;48.336;14.472;2023-03-02T12:36:41;4.65;;;2.72;;
63370;SDS011;49504;48.336;14.472;2023-03-02T12:40:12;4.38;;;2.50;;
63370;SDS011;49504;48.336;14.472;2023-03-02T12:43:50;4.90;;;2.45;;
63370;SDS011;49504;48.336;14.472;2023-03-02T12:47:23;6.68;;;2.70;;
63370;SDS011;49504;48.336;14.472;2023-03-02T12:50:49;5.22;;;2.95;;
63370;SDS011;49504;48.336;14.472;2023-03-02T12:54:14;4.45;;;2.30;;
63370;SDS011;49504;48.336;14.472;2023-03-02T12:57:37;3.95;;;2.03;;
63370;SDS011;49504;48.336;14.472;2023-03-02T13:01:17;5.00;;;2.60;;
63370;SDS011;49504;48.336;14.472;2023-03-02T13:04:43;4.10;;;2.33;;
63370;SDS011;49504;48.336;14.472;2023-03-02T13:08:12;5.65;;;2.22;;
63370;SDS011;49504;48.336;14.472;2023-03-02T13:11:38;5.07;;;2.83;;
63370;SDS011;49504;48.336;14.472;2023-03-02T13:14:59;6.25;;;3.45;;
63370;SDS011;49504;48.336;14.472;2023-03-02T13:18:20;5.43;;;3.10;;
63370;SDS011;49504;48.336;14.472;2023-03-02T13:24:30;5.95;;;3.00;;
63370;SDS011;49504;48.336;14.472;2023-03-02T13:27:55;5.13;;;2.80;;
63370;SDS011;49504;48.336;14.472;2023-03-02T13:31:18;5.40;;;2.40;;
63370;SDS011;49504;48.336;14.472;2023-03-02T13:34:44;5.00;;;2.42;;
63370;SDS011;49504;48.336;14.472;2023-03-02T13:38:12;5.72;;;2.60;;
63370;SDS011;49504;48.336;14.472;2023-03-02T13:41:38;5.85;;;2.63;;
63370;SDS011;49504;48.336;14.472;2023-03-02T13:45:07;4.15;;;2.20;;
63370;SDS011;49504;48.336;14.472;2023-03-02T13:48:51;5.05;;;2.40;;
63370;SDS011;49504;48.336;14.472;2023-03-02T13:52:15;5.47;;;2.30;;
63370;SDS011;49504;48.336;14.472;2023-03-02T13:55:42;4.82;;;2.13;;
63370;SDS011;49504;48.336;14.472;2023-03-02T13:59:07;5.53;;;2.38;;
63370;SDS011;49504;48.336;14.472;2023-03-02T14:02:34;6.55;;;2.53;;
63370;SDS011;49504;48.336;14.472;2023-03-02T14:05:56;4.95;;;2.25;;
63370;SDS011;49504;48.336;14.472;2023-03-02T14:09:19;5.25;;;2.55;;
63370;SDS011;49504;48.336;14.472;2023-03-02T14:12:46;5.38;;;2.28;;
63370;SDS011;49504;48.336;14.472;2023-03-02T14:16:15;5.20;;;2.38;;
63370;SDS011;49504;48.336;14.472;2023-03-02T14:19:37;5.47;;;2.22;;
63370;SDS011;49504;48.336;14.472;2023-03-02T14:24:58;4.55;;;2.20;;
63370;SDS011;49504;48.336;14.472;2023-03-02T14:28:22;5.82;;;2.10;;
63370;SDS011;49504;48.336;14.472;2023-03-02T14:31:47;4.80;;;2.38;;
63370;SDS011;49504;48.336;14.472;2023-03-02T14:35:09;4.95;;;2.13;;
63370;SDS011;49504;48.336;14.472;2023-03-02T14:38:33;7.18;;;2.40;;
63370;SDS011;49504;48.336;14.472;2023-03-02T14:41:55;4.70;;;2.40;;
63370;SDS011;49504;48.336;14.472;2023-03-02T14:45:16;5.63;;;2.38;;
63370;SDS011;49504;48.336;14.472;2023-03-02T14:48:38;5.38;;;2.40;;
63370;SDS011;49504;48.336;14.472;2023-03-02T14:51:59;5.95;;;2.67;;
63370;SDS011;49504;48.336;14.472;2023-03-02T14:58:48;4.60;;;2.50;;
63370;SDS011;49504;48.336;14.472;2023-03-02T15:03:25;5.70;;;2.63;;
63370;SDS011;49504;48.336;14.472;2023-03-02T15:06:46;4.75;;;2.55;;
63370;SDS011;49504;48.336;14.472;2023-03-02T15:10:10;5.20;;;2.40;;
63370;SDS011;49504;48.336;14.472;2023-03-02T15:13:34;4.25;;;2.17;;
63370;SDS011;49504;48.336;14.472;2023-03-02T15:16:55;5.38;;;2.55;;
63370;SDS011;49504;48.336;14.472;2023-03-02T15:20:17;4.38;;;2.30;;
63370;SDS011;49504;48.336;14.472;2023-03-02T15:23:39;5.85;;;2.03;;
63370;SDS011;49504;48.336;14.472;2023-03-02T16:26:54;4.95;;;2.70;;
63370;SDS011;49504;48.336;14.472;2023-03-02T16:30:15;4.80;;;2.13;;
63370;SDS011;49504;48.336;14.472;2023-03-02T16:33:37;6.13;;;2.38;;
63370;SDS011;49504;48.336;14.472;2023-03-02T16:36:59;4.65;;;2.25;;
63370;SDS011;49504;48.336;14.472;2023-03-02T16:40:22;4.93;;;2.38;;
63370;SDS011;49504;48.336;14.472;2023-03-02T16:43:46;5.78;;;2.22;;
63370;SDS011;49504;48.336;14.472;2023-03-02T16:52:24;5.47;;;2.20;;
63370;SDS011;49504;48.336;14.472;2023-03-02T16:55:47;5.18;;;2.65;;
63370;SDS011;49504;48.336;14.472;2023-03-02T16:59:08;5.28;;;2.60;;
63370;SDS011;49504;48.336;14.472;2023-03-02T17:02:30;4.10;;;2.00;;
63370;SDS011;49504;48.336;14.472;2023-03-02T17:05:51;4.07;;;2.00;;
63370;SDS011;49504;48.336;14.472;2023-03-02T17:09:14;7.20;;;2.20;;
63370;SDS011;49504;48.336;14.472;2023-03-02T17:13:03;4.55;;;2.40;;
63370;SDS011;49504;48.336;14.472;2023-03-02T17:16:24;5.30;;;2.08;;
63370;SDS011;49504;48.336;14.472;2023-03-02T17:19:45;4.30;;;2.17;;
63370;SDS011;49504;48.336;14.472;2023-03-02T17:23:07;6.63;;;2.65;;
63370;SDS011;49504;48.336;14.472;2023-03-02T17:26:28;5.47;;;2.65;;
63370;SDS011;49504;48.336;14.472;2023-03-02T17:29:50;4.80;;;2.47;;
63370;SDS011;49504;48.336;14.472;2023-03-02T17:33:11;5.32;;;2.42;;
63370;SDS011;49504;48.336;14.472;2023-03-02T17:36:33;7.55;;;2.53;;
63370;SDS011;49504;48.336;14.472;2023-03-02T17:39:54;5.60;;;2.65;;
63370;SDS011;49504;48.336;14.472;2023-03-02T17:43:15;4.53;;;2.40;;
63370;SDS011;49504;48.336;14.472;2023-03-02T17:46:37;3.88;;;1.98;;
63370;SDS011;49504;48.336;14.472;2023-03-02T17:50:02;4.70;;;2.28;;
63370;SDS011;49504;48.336;14.472;2023-03-02T17:53:24;4.15;;;2.22;;
63370;SDS011;49504;48.336;14.472;2023-03-02T17:56:45;4.45;;;2.05;;
63370;SDS011;49504;48.336;14.472;2023-03-02T18:00:07;6.03;;;2.90;;
63370;SDS011;49504;48.336;14.472;2023-03-02T18:09:22;5.53;;;2.20;;
63370;SDS011;49504;48.336;14.472;2023-03-02T18:12:43;4.47;;;2.55;;
63370;SDS011;49504;48.336;14.472;2023-03-02T18:16:07;4.75;;;2.55;;
63370;SDS011;49504;48.336;14.472;2023-03-02T18:19:29;5.25;;;2.55;;
63370;SDS011;49504;48.336;14.472;2023-03-02T18:22:50;3.92;;;2.35;;
63370;SDS011;49504;48.336;14.472;2023-03-02T18:26:12;4.35;;;2.40;;
63370;SDS011;49504;48.336;14.472;2023-03-02T18:29:34;5.32;;;2.75;;
63370;SDS011;49504;48.336;14.472;2023-03-02T18:32:55;4.82;;;2.50;;
63370;SDS011;49504;48.336;14.472;2023-03-02T18:36:17;4.75;;;2.50;;
63370;SDS011;49504;48.336;14.472;2023-03-02T18:39:39;5.00;;;2.38;;
63370;SDS011;49504;48.336;14.472;2023-03-02T18:43:02;4.85;;;2.90;;
63370;SDS011;49504;48.336;14.472;2023-03-02T18:46:27;4.93;;;2.95;;
63370;SDS011;49504;48.336;14.472;2023-03-02T18:49:50;4.97;;;2.75;;
63370;SDS011;49504;48.336;14.472;2023-03-02T18:53:11;5.97;;;2.95;;
63370;SDS011;49504;48.336;14.472;2023-03-02T18:56:32;6.72;;;3.30;;
63370;SDS011;49504;48.336;14.472;2023-03-02T18:59:55;4.97;;;3.30;;
63370;SDS011;49504;48.336;14.472;2023-03-02T19:03:16;4.80;;;2.85;;
63370;SDS011;49504;48.336;14.472;2023-03-02T19:06:37;9.60;;;4.05;;
63370;SDS011;49504;48.336;14.472;2023-03-02T19:09:59;7.30;;;3.33;;
63370;SDS011;49504;48.336;14.472;2023-03-02T19:13:20;6.68;;;3.20;;
63370;SDS011;49504;48.336;14.472;2023-03-02T19:16:43;6.45;;;3.30;;
63370;SDS011;49504;48.336;14.472;2023-03-02T19:20:05;8.07;;;3.28;;
63370;SDS011;49504;48.336;14.472;2023-03-02T19:23:32;9.52;;;4.43;;
63370;SDS011;49504;48.336;14.472;2023-03-02T19:26:53;7.20;;;3.22;;
63370;SDS011;49504;48.336;14.472;2023-03-02T19:30:15;7.55;;;3.70;;
63370;SDS011;49504;48.336;14.472;2023-03-02T19:33:42;9.40;;;3.60;;
63370;SDS011;49504;48.336;14.472;2023-03-02T19:37:04;9.50;;;3.90;;
63370;SDS011;49504;48.336;14.472;2023-03-02T19:40:26;11.65;;;4.40;;
63370;SDS011;49504;48.336;14.472;2023-03-02T19:43:48;13.60;;;4.57;;
63370;SDS011;49504;48.336;14.472;2023-03-02T19:47:10;8.95;;;3.85;;
63370;SDS011;49504;48.336;14.472;2023-03-02T19:50:32;9.07;;;4.05;;
63370;SDS011;49504;48.336;14.472;2023-03-02T19:53:53;11.43;;;4.28;;
63370;SDS011;49504;48.336;14.472;2023-03-02T19:58:43;13.18;;;5.10;;
63370;SDS011;49504;48.336;14.472;2023-03-02T20:02:05;13.05;;;5.50;;
63370;SDS011;49504;48.336;14.472;2023-03-02T20:05:26;8.93;;;4.40;;
63370;SDS011;49504;48.336;14.472;2023-03-02T20:08:47;7.38;;;3.80;;
63370;SDS011;49504;48.336;14.472;2023-03-02T20:12:09;8.15;;;3.90;;
63370;SDS011;49504;48.336;14.472;2023-03-02T20:15:32;12.13;;;4.60;;
63370;SDS011;49504;48.336;14.472;2023-03-02T20:18:56;9.40;;;4.32;;
63370;SDS011;49504;48.336;14.472;2023-03-02T20:22:17;9.65;;;4.47;;
63370;SDS011;49504;48.336;14.472;2023-03-02T20:25:39;10.35;;;4.13;;
63370;SDS011;49504;48.336;14.472;2023-03-02T20:29:00;9.35;;;4.25;;
63370;SDS011;49504;48.336;14.472;2023-03-02T20:32:24;10.38;;;4.75;;
63370;SDS011;49504;48.336;14.472;2023-03-02T20:35:46;9.00;;;4.22;;
63370;SDS011;49504;48.336;14.472;2023-03-02T20:39:09;9.88;;;4.43;;
63370;SDS011;49504;48.336;14.472;2023-03-02T20:42:34;8.65;;;4.70;;
63370;SDS011;49504;48.336;14.472;2023-03-02T20:45:56;12.02;;;4.32;;
63370;SDS011;49504;48.336;14.472;2023-03-02T20:49:20;9.50;;;4.35;;
63370;SDS011;49504;48.336;14.472;2023-03-02T20:52:42;10.15;;;4.68;;
63370;SDS011;49504;48.336;14.472;2023-03-02T20:56:03;8.35;;;3.70;;
63370;SDS011;49504;48.336;14.472;2023-03-02T20:59:25;9.85;;;4.43;;
63370;SDS011;49504;48.336;14.472;2023-03-02T21:02:48;8.50;;;4.13;;
63370;SDS011;49504;48.336;14.472;2023-03-02T21:06:11;9.07;;;4.53;;
63370;SDS011;49504;48.336;14.472;2023-03-02T21:09:33;9.20;;;4.53;;
63370;SDS011;49504;48.336;14.472;2023-03-02T21:12:54;10.10;;;4.45;;
63370;SDS011;49504;48.336;14.472;2023-03-02T21:16:17;9.45;;;4.20;;
63370;SDS011;49504;48.336;14.472;2023-03-02T21:19:40;9.50;;;4.43;;
63370;SDS011;49504;48.336;14.472;2023-03-02T21:23:03;13.05;;;5.07;;
63370;SDS011;49504;48.336;14.472;2023-03-02T21:26:25;9.10;;;4.10;;
63370;SDS011;49504;48.336;14.472;2023-03-02T21:29:47;8.75;;;4.20;;
63370;SDS011;49504;48.336;14.472;2023-03-02T21:33:08;10.18;;;4.93;;
63370;SDS011;49504;48.336;14.472;2023-03-02T21:36:29;9.70;;;3.80;;
63370;SDS011;49504;48.336;14.472;2023-03-02T21:39:52;8.90;;;4.20;;
63370;SDS011;49504;48.336;14.472;2023-03-02T21:43:13;7.63;;;4.18;;
63370;SDS011;49504;48.336;14.472;2023-03-02T21:46:35;6.88;;;3.70;;
63370;SDS011;49504;48.336;14.472;2023-03-02T21:49:57;9.15;;;4.50;;